Time;durP1;ratioP1;P1;durP2;ratioP2;P2;SDS_P1;SDS_P2;PMS_P1;PMS_P2;Temp;Humidity;BMP_temperature;BMP_pressure;BME280_temperature;BME280_humidity;BME280_pressure;Samples;Min_cycle;Max_cycle;Signal;HPM_P1;HPM_P2
2021/03/13 00:02:25;;;;;;;;;;;4.10;97.40;;;;;;5049335;28;19920;-67
2021/03/13 00:04:51;;;;;;;;;;;4.20;97.50;;;;;;5021807;28;19913;-68
2021/03/13 00:07:16;;;;;;;;;;;4.30;96.90;;;;;;5047832;28;19959;-67
2021/03/13 00:09:43;;;;;;;;;;;4.30;96.80;;;;;;5048378;28;20237;-68
2021/03/13 00:12:09;;;;;;;;;;;4.20;97.00;;;;;;5051354;28;19928;-68
2021/03/13 00:14:40;;;;;;;;;;;4.30;97.10;;;;;;5035211;28;19967;-68
2021/03/13 00:17:06;;;;;;;;;;;4.30;96.90;;;;;;5052531;28;19955;-68
2021/03/13 00:19:33;;;;;;;;;;;4.40;96.70;;;;;;5057161;28;19908;-68
2021/03/13 00:21:59;;;;;;;;;;;4.40;96.60;;;;;;5027228;28;19952;-68
2021/03/13 00:24:27;;;;;;;;;;;4.60;96.30;;;;;;5037645;28;19960;-69
2021/03/13 00:26:53;;;;;;;;;;;4.80;95.30;;;;;;5052948;28;19913;-68
2021/03/13 00:29:18;;;;;;;;;;;4.90;94.90;;;;;;5045136;28;19981;-69
2021/03/13 00:31:44;;;;;;;;;;;4.90;94.80;;;;;;5044207;28;19929;-68
2021/03/13 00:34:09;;;;;;;;;;;4.90;94.50;;;;;;5055172;28;19922;-69
2021/03/13 00:36:36;;;;;;;;;;;4.90;94.50;;;;;;5043207;28;19936;-68
2021/03/13 00:39:02;;;;;;;;;;;5.00;94.20;;;;;;5051322;28;20313;-69
2021/03/13 00:41:27;;;;;;;;;;;5.00;94.30;;;;;;5052586;28;19931;-67
2021/03/13 00:43:53;;;;;;;;;;;5.20;93.40;;;;;;5045588;28;19917;-66
2021/03/13 00:46:18;;;;;;;;;;;5.30;92.70;;;;;;5039257;28;19921;-68
2021/03/13 00:48:44;;;;;;;;;;;5.40;92.20;;;;;;5055914;28;20399;-69
2021/03/13 00:51:09;;;;;;;;;;;5.40;92.10;;;;;;5046429;28;20286;-69
2021/03/13 00:53:38;;;;;;;;;;;5.40;92.10;;;;;;5045674;28;19917;-69
2021/03/13 00:56:03;;;;;;;;;;;5.30;92.40;;;;;;5038605;28;19975;-69
2021/03/13 00:58:29;;;;;;;;;;;5.30;91.70;;;;;;5021670;28;19960;-69
2021/03/13 01:00:54;;;;;;;;;;;5.40;91.80;;;;;;5046481;28;19917;-69
2021/03/13 01:03:20;;;;;;;;;;;5.30;91.60;;;;;;5023287;28;19976;-68
2021/03/13 01:05:45;;;;;;;;;;;5.40;91.00;;;;;;5048937;28;19913;-69
2021/03/13 01:08:11;;;;;;;;;;;5.40;91.10;;;;;;5048392;28;19913;-67
2021/03/13 01:10:38;;;;;;;;;;;5.40;90.90;;;;;;5043016;28;19967;-69
2021/03/13 01:13:04;;;;;;;;;;;5.40;90.80;;;;;;5050803;28;19917;-69
2021/03/13 01:15:30;;;;;;;;;;;5.50;90.20;;;;;;5054076;28;19942;-68
2021/03/13 01:17:56;;;;;;;;;;;5.60;89.90;;;;;;5040529;28;19948;-68
2021/03/13 01:20:22;;;;;;;;;;;5.50;90.10;;;;;;5038553;28;19955;-69
2021/03/13 01:22:47;;;;;;;;;;;5.50;90.60;;;;;;5045584;28;19913;-69
2021/03/13 01:25:13;;;;;;;;;;;5.40;91.00;;;;;;5050209;28;19939;-69
2021/03/13 01:27:39;;;;;;;;;;;5.50;90.70;;;;;;5039455;28;20008;-69
2021/03/13 01:30:06;;;;;;;;;;;5.50;90.20;;;;;;5040257;28;19916;-68
2021/03/13 01:32:31;;;;;;;;;;;5.50;90.20;;;;;;5047013;28;19917;-68
2021/03/13 01:34:57;;;;;;;;;;;5.50;89.90;;;;;;5040544;28;19938;-69
2021/03/13 01:37:23;;;;;;;;;;;5.50;90.30;;;;;;5036545;28;19924;-68
2021/03/13 01:39:48;;;;;;;;;;;5.50;89.90;;;;;;5049070;28;19913;-69
2021/03/13 01:42:14;;;;;;;;;;;5.50;90.00;;;;;;5048331;28;19920;-69
2021/03/13 01:44:40;;;;;;;;;;;5.40;90.40;;;;;;5040087;28;19913;-67
2021/03/13 01:47:05;;;;;;;;;;;5.50;89.60;;;;;;5055242;28;19956;-68
2021/03/13 01:49:32;;;;;;;;;;;5.60;89.30;;;;;;5044830;28;19913;-68
2021/03/13 01:51:58;;;;;;;;;;;5.40;89.80;;;;;;5036468;28;20253;-67
2021/03/13 01:54:24;;;;;;;;;;;5.40;89.80;;;;;;5039512;28;19917;-67
2021/03/13 01:56:50;;;;;;;;;;;5.40;89.70;;;;;;5037298;28;19987;-67
2021/03/13 01:59:17;;;;;;;;;;;5.30;89.80;;;;;;5037406;28;19919;-66
2021/03/13 02:01:42;;;;;;;;;;;5.40;89.50;;;;;;5040572;28;19914;-69
2021/03/13 02:04:08;;;;;;;;;;;5.50;89.00;;;;;;5042649;28;19913;-69
2021/03/13 02:06:33;;;;;;;;;;;5.60;88.70;;;;;;5040264;28;19941;-68
2021/03/13 02:08:59;;;;;;;;;;;5.60;88.80;;;;;;5028040;28;19917;-68
2021/03/13 02:11:37;;;;;;;;;;;5.50;88.80;;;;;;5042023;28;20302;-68
2021/03/13 02:14:02;;;;;;;;;;;5.50;89.10;;;;;;5044598;28;20221;-68
2021/03/13 02:16:30;;;;;;;;;;;5.50;89.10;;;;;;5050956;28;19995;-68
2021/03/13 02:19:02;;;;;;;;;;;5.50;89.30;;;;;;5036085;28;19917;-68
2021/03/13 02:21:43;;;;;;;;;;;5.60;88.90;;;;;;5055326;28;19923;-69
2021/03/13 02:24:15;;;;;;;;;;;5.60;88.60;;;;;;5055008;28;19962;-69
2021/03/13 02:27:01;;;;;;;;;;;5.70;88.20;;;;;;5039830;28;19920;-69
2021/03/13 02:29:29;;;;;;;;;;;5.60;88.30;;;;;;5034515;28;19924;-69
2021/03/13 02:31:56;;;;;;;;;;;5.60;88.40;;;;;;5037275;28;20214;-69
2021/03/13 02:34:25;;;;;;;;;;;5.50;88.70;;;;;;5053816;28;19959;-68
2021/03/13 02:36:51;;;;;;;;;;;5.50;88.80;;;;;;5037892;28;19920;-69
2021/03/13 02:39:19;;;;;;;;;;;5.70;88.00;;;;;;5041220;28;19932;-69
2021/03/13 02:41:46;;;;;;;;;;;5.70;88.20;;;;;;5035668;28;19974;-68
2021/03/13 02:44:13;;;;;;;;;;;5.70;88.20;;;;;;5050218;28;19920;-68
2021/03/13 02:46:43;;;;;;;;;;;5.60;88.20;;;;;;5053288;28;19940;-68
2021/03/13 02:49:10;;;;;;;;;;;5.70;88.00;;;;;;5038561;28;20379;-69
2021/03/13 02:51:39;;;;;;;;;;;5.60;88.30;;;;;;5054324;28;20228;-68
2021/03/13 02:54:06;;;;;;;;;;;5.70;88.00;;;;;;5052351;28;19917;-68
2021/03/13 02:56:33;;;;;;;;;;;5.70;88.00;;;;;;5046683;28;20318;-70
2021/03/13 02:58:59;;;;;;;;;;;5.60;88.20;;;;;;5038342;28;19919;-68
2021/03/13 03:01:27;;;;;;;;;;;5.60;87.90;;;;;;5045938;28;19999;-69
2021/03/13 03:03:52;;;;;;;;;;;5.70;87.50;;;;;;5038658;28;19959;-69
2021/03/13 03:06:18;;;;;;;;;;;5.80;87.30;;;;;;5048761;28;19909;-68
2021/03/13 03:08:44;;;;;;;;;;;5.90;87.00;;;;;;5053908;28;19917;-67
2021/03/13 03:11:10;;;;;;;;;;;5.90;87.00;;;;;;5054639;28;19975;-68
2021/03/13 03:13:36;;;;;;;;;;;5.90;87.10;;;;;;5048654;28;19909;-69
2021/03/13 03:16:03;;;;;;;;;;;5.90;86.70;;;;;;5049507;28;19920;-69
2021/03/13 03:18:29;;;;;;;;;;;6.00;86.10;;;;;;5041635;28;19909;-70
2021/03/13 03:20:55;;;;;;;;;;;6.00;86.20;;;;;;5047182;28;19939;-69
2021/03/13 03:23:21;;;;;;;;;;;6.00;86.00;;;;;;5046891;28;20318;-68
2021/03/13 03:25:50;;;;;;;;;;;6.00;85.80;;;;;;5036646;28;19920;-68
2021/03/13 03:28:18;;;;;;;;;;;6.00;86.00;;;;;;5041073;28;20198;-68
2021/03/13 03:30:43;;;;;;;;;;;6.10;85.80;;;;;;5041757;28;19924;-68
2021/03/13 03:33:09;;;;;;;;;;;6.10;85.80;;;;;;5023348;28;19913;-68
2021/03/13 03:35:34;;;;;;;;;;;6.00;86.80;;;;;;5046519;28;20424;-68
2021/03/13 03:38:01;;;;;;;;;;;5.90;87.20;;;;;;5037966;28;19917;-69
2021/03/13 03:40:28;;;;;;;;;;;5.90;87.80;;;;;;5051747;28;20032;-69
2021/03/13 03:43:05;;;;;;;;;;;5.90;88.10;;;;;;5044206;28;19917;-69
2021/03/13 03:45:31;;;;;;;;;;;5.90;88.00;;;;;;5041576;28;20379;-69
2021/03/13 03:47:57;;;;;;;;;;;5.80;88.60;;;;;;5043551;28;20027;-69
2021/03/13 03:50:23;;;;;;;;;;;5.70;89.70;;;;;;5045270;28;19913;-69
2021/03/13 03:52:50;;;;;;;;;;;5.50;91.30;;;;;;5054781;28;20219;-70
2021/03/13 03:55:17;;;;;;;;;;;5.20;92.70;;;;;;5052371;28;19913;-69
2021/03/13 03:57:44;;;;;;;;;;;4.90;93.60;;;;;;5038323;28;19940;-69
2021/03/13 04:00:10;;;;;;;;;;;4.80;94.30;;;;;;5033025;28;19913;-69
2021/03/13 04:02:36;;;;;;;;;;;4.80;94.00;;;;;;5038355;28;20332;-69
2021/03/13 04:05:03;;;;;;;;;;;4.90;93.60;;;;;;5053320;28;19974;-68
2021/03/13 04:07:28;;;;;;;;;;;4.90;93.30;;;;;;5057147;28;19959;-69
2021/03/13 04:09:54;;;;;;;;;;;4.90;93.80;;;;;;5043534;28;19941;-69
2021/03/13 04:12:20;;;;;;;;;;;5.00;92.60;;;;;;5052924;28;19916;-69
2021/03/13 04:14:47;;;;;;;;;;;5.20;91.80;;;;;;5044844;28;19913;-69
2021/03/13 04:17:12;;;;;;;;;;;5.30;91.40;;;;;;5037395;28;20217;-69
2021/03/13 04:19:38;;;;;;;;;;;5.20;92.00;;;;;;5046428;28;20007;-69
2021/03/13 04:22:04;;;;;;;;;;;5.30;91.00;;;;;;5048660;28;20040;-69
2021/03/13 04:24:30;;;;;;;;;;;5.40;90.80;;;;;;5046995;28;19916;-69
2021/03/13 04:26:57;;;;;;;;;;;5.40;91.20;;;;;;5056648;28;19913;-69
2021/03/13 04:29:22;;;;;;;;;;;5.50;90.40;;;;;;5030118;28;19913;-69
2021/03/13 04:31:48;;;;;;;;;;;5.60;89.30;;;;;;5057153;28;20326;-69
2021/03/13 04:34:15;;;;;;;;;;;5.60;89.30;;;;;;5043263;28;19921;-69
2021/03/13 04:36:44;;;;;;;;;;;5.60;88.90;;;;;;5038265;28;19920;-69
2021/03/13 04:39:10;;;;;;;;;;;5.70;88.10;;;;;;5047256;28;20279;-69
2021/03/13 04:41:36;;;;;;;;;;;5.80;87.50;;;;;;5051520;28;19920;-68
2021/03/13 04:44:02;;;;;;;;;;;5.90;87.20;;;;;;5044635;28;19913;-67
2021/03/13 04:46:31;;;;;;;;;;;6.00;86.80;;;;;;5049035;28;20344;-66
2021/03/13 04:48:57;;;;;;;;;;;6.00;86.80;;;;;;5037612;28;20317;-66
2021/03/13 04:51:23;;;;;;;;;;;5.90;86.90;;;;;;5050237;28;19927;-66
2021/03/13 04:53:48;;;;;;;;;;;6.00;86.70;;;;;;5044254;28;19913;-68
2021/03/13 04:56:14;;;;;;;;;;;6.00;87.00;;;;;;5057021;28;19964;-69
2021/03/13 04:58:40;;;;;;;;;;;6.00;87.00;;;;;;5047067;28;19914;-69
2021/03/13 05:01:06;;;;;;;;;;;6.00;86.70;;;;;;5041347;28;20478;-68
2021/03/13 05:03:31;;;;;;;;;;;6.00;86.70;;;;;;5042825;28;19921;-68
2021/03/13 05:05:57;;;;;;;;;;;6.00;86.70;;;;;;5053380;28;19913;-69
2021/03/13 05:08:22;;;;;;;;;;;6.10;86.60;;;;;;5045204;28;19941;-68
2021/03/13 05:10:48;;;;;;;;;;;6.00;86.70;;;;;;5044365;28;19955;-68
2021/03/13 05:13:13;;;;;;;;;;;6.00;86.60;;;;;;5044572;28;19928;-68
2021/03/13 05:15:39;;;;;;;;;;;6.00;86.40;;;;;;5043606;28;19913;-69
2021/03/13 05:18:05;;;;;;;;;;;6.00;86.70;;;;;;5040715;28;19917;-69
2021/03/13 05:20:30;;;;;;;;;;;6.00;86.60;;;;;;5043401;28;19920;-69
2021/03/13 05:22:56;;;;;;;;;;;6.00;86.90;;;;;;5047703;28;19960;-68
2021/03/13 05:25:21;;;;;;;;;;;6.00;86.30;;;;;;5033662;28;19913;-68
2021/03/13 05:27:47;;;;;;;;;;;6.00;86.30;;;;;;5050279;28;19952;-68
2021/03/13 05:30:13;;;;;;;;;;;6.00;87.00;;;;;;5054115;28;19913;-68
2021/03/13 05:32:39;;;;;;;;;;;6.00;86.50;;;;;;5043402;28;19920;-69
2021/03/13 05:35:05;;;;;;;;;;;6.00;86.60;;;;;;5053359;28;20025;-68
2021/03/13 05:37:31;;;;;;;;;;;6.00;86.90;;;;;;5048358;28;20273;-68
2021/03/13 05:39:57;;;;;;;;;;;5.90;87.00;;;;;;5045135;28;19995;-68
2021/03/13 05:42:22;;;;;;;;;;;5.90;87.60;;;;;;5036174;28;20203;-69
2021/03/13 05:44:48;;;;;;;;;;;5.80;87.80;;;;;;5040699;28;19913;-68
2021/03/13 05:47:14;;;;;;;;;;;5.70;88.80;;;;;;5039851;28;19967;-68
2021/03/13 05:49:41;;;;;;;;;;;5.70;88.90;;;;;;5055948;28;20203;-68
2021/03/13 05:52:07;;;;;;;;;;;5.70;89.30;;;;;;5053083;28;19925;-69
2021/03/13 05:54:33;;;;;;;;;;;5.70;89.00;;;;;;5041615;28;19936;-69
2021/03/13 05:57:00;;;;;;;;;;;5.70;88.40;;;;;;5050022;28;19948;-68
2021/03/13 05:59:26;;;;;;;;;;;5.80;88.30;;;;;;5035359;28;20426;-67
2021/03/13 06:01:52;;;;;;;;;;;5.80;87.90;;;;;;5041685;28;20019;-69
2021/03/13 06:04:18;;;;;;;;;;;5.90;88.00;;;;;;5044508;28;20281;-69
2021/03/13 06:06:44;;;;;;;;;;;5.80;88.30;;;;;;5040321;28;19917;-70
2021/03/13 06:09:11;;;;;;;;;;;5.70;88.70;;;;;;5035974;28;20313;-68
2021/03/13 06:11:37;;;;;;;;;;;5.70;89.70;;;;;;5037704;28;19921;-69
2021/03/13 06:14:03;;;;;;;;;;;5.60;90.10;;;;;;5036498;28;19959;-69
2021/03/13 06:16:30;;;;;;;;;;;5.60;89.60;;;;;;5054469;28;19916;-69
2021/03/13 06:18:56;;;;;;;;;;;5.70;89.20;;;;;;5053392;28;19975;-68
2021/03/13 06:21:22;;;;;;;;;;;5.70;89.30;;;;;;5054549;28;19912;-69
2021/03/13 06:23:51;;;;;;;;;;;5.80;88.30;;;;;;5053012;28;19953;-68
2021/03/13 06:26:16;;;;;;;;;;;5.80;89.00;;;;;;5054856;28;20313;-69
2021/03/13 06:28:42;;;;;;;;;;;5.70;89.30;;;;;;5050528;28;19923;-69
2021/03/13 06:31:12;;;;;;;;;;;5.70;89.00;;;;;;5025394;28;19913;-68
2021/03/13 06:33:37;;;;;;;;;;;5.70;89.10;;;;;;5037756;28;19913;-69
2021/03/13 06:36:04;;;;;;;;;;;5.80;88.70;;;;;;5037144;28;19919;-69
2021/03/13 06:38:31;;;;;;;;;;;5.80;88.80;;;;;;5047055;28;19975;-68
2021/03/13 06:40:57;;;;;;;;;;;5.90;88.20;;;;;;5035810;28;20382;-68
2021/03/13 06:43:23;;;;;;;;;;;5.90;87.60;;;;;;5042764;28;20392;-68
2021/03/13 06:46:00;;;;;;;;;;;6.00;86.70;;;;;;5053904;28;19913;-68
2021/03/13 06:48:35;;;;;;;;;;;6.10;86.70;;;;;;5054912;28;20306;-69
2021/03/13 06:51:17;;;;;;;;;;;6.20;85.90;;;;;;5052715;28;20419;-68
2021/03/13 06:53:43;;;;;;;;;;;6.20;86.30;;;;;;5030243;28;19999;-67
2021/03/13 06:56:12;;;;;;;;;;;6.10;85.80;;;;;;5054924;28;20365;-68
2021/03/13 06:58:39;;;;;;;;;;;6.20;86.00;;;;;;5045260;28;19940;-69
2021/03/13 07:01:05;;;;;;;;;;;6.20;85.80;;;;;;5047246;28;19979;-68
2021/03/13 07:03:31;;;;;;;;;;;6.30;85.00;;;;;;5049330;28;19913;-69
2021/03/13 07:05:57;;;;;;;;;;;6.40;84.80;;;;;;5055380;28;19967;-69
2021/03/13 07:08:27;;;;;;;;;;;6.40;84.60;;;;;;5036672;28;19917;-69
2021/03/13 07:10:56;;;;;;;;;;;6.40;84.30;;;;;;5054648;28;19940;-68
2021/03/13 07:13:31;;;;;;;;;;;6.50;83.90;;;;;;5019055;28;19924;-68
2021/03/13 07:16:16;;;;;;;;;;;6.50;83.30;;;;;;5045843;28;20453;-69
2021/03/13 07:18:42;;;;;;;;;;;6.50;83.50;;;;;;5053076;28;19912;-68
2021/03/13 07:21:08;;;;;;;;;;;6.50;83.00;;;;;;5042547;28;19912;-68
2021/03/13 07:23:33;;;;;;;;;;;6.60;83.00;;;;;;5056454;28;20008;-67
2021/03/13 07:25:59;;;;;;;;;;;6.60;83.20;;;;;;5046240;28;19913;-69
2021/03/13 07:28:24;;;;;;;;;;;6.70;82.40;;;;;;5027738;28;19945;-68
2021/03/13 07:30:50;;;;;;;;;;;6.70;82.00;;;;;;5046424;28;20272;-68
2021/03/13 07:33:17;;;;;;;;;;;6.80;81.80;;;;;;5053619;28;20324;-69
2021/03/13 07:35:52;;;;;;;;;;;6.80;81.60;;;;;;5056232;28;19920;-69
2021/03/13 07:38:18;;;;;;;;;;;6.80;81.10;;;;;;5040103;28;19924;-67
2021/03/13 07:40:45;;;;;;;;;;;7.00;81.00;;;;;;5058345;28;19927;-68
2021/03/13 07:43:12;;;;;;;;;;;7.00;80.30;;;;;;5057568;28;19983;-68
2021/03/13 07:45:39;;;;;;;;;;;7.00;80.10;;;;;;5048800;28;20016;-67
2021/03/13 07:48:05;;;;;;;;;;;7.10;79.90;;;;;;5055474;28;19923;-68
2021/03/13 07:50:30;;;;;;;;;;;7.10;79.70;;;;;;5053604;28;19941;-68
2021/03/13 07:52:56;;;;;;;;;;;7.20;79.60;;;;;;5057754;28;20310;-69
2021/03/13 07:55:24;;;;;;;;;;;7.20;79.10;;;;;;5047633;28;19949;-68
2021/03/13 07:57:51;;;;;;;;;;;7.30;79.10;;;;;;5045423;28;19959;-68
2021/03/13 08:00:17;;;;;;;;;;;7.40;79.10;;;;;;5054165;28;19912;-68
2021/03/13 08:02:46;;;;;;;;;;;7.50;78.30;;;;;;5055253;28;20387;-69
2021/03/13 08:05:18;;;;;;;;;;;7.60;78.00;;;;;;5055123;28;20287;-69
2021/03/13 08:07:53;;;;;;;;;;;7.70;78.00;;;;;;5056254;28;19940;-68
2021/03/13 08:10:38;;;;;;;;;;;7.70;77.70;;;;;;5056343;28;20256;-68
2021/03/13 08:13:03;;;;;;;;;;;7.90;77.80;;;;;;5048928;28;19968;-69
2021/03/13 08:15:29;;;;;;;;;;;7.90;77.50;;;;;;5054780;28;19979;-69
2021/03/13 08:17:54;;;;;;;;;;;7.80;77.60;;;;;;5045897;28;19928;-68
2021/03/13 08:20:28;;;;;;;;;;;7.80;77.50;;;;;;5047158;28;19971;-68
2021/03/13 08:23:12;;;;;;;;;;;7.80;76.90;;;;;;5034483;28;19917;-69
2021/03/13 08:25:56;;;;;;;;;;;8.00;76.80;;;;;;5056704;28;19917;-68
2021/03/13 08:28:40;;;;;;;;;;;8.10;75.70;;;;;;5050444;28;19971;-69
2021/03/13 08:33:49;;;;;;;;;;;8.60;73.60;;;;;;5048939;28;19921;-68
2021/03/13 08:36:16;;;;;;;;;;;8.60;73.30;;;;;;5056860;28;20000;-67
2021/03/13 08:39:11;;;;;;;;;;;8.50;73.30;;;;;;5057913;28;20270;-68
2021/03/13 08:41:45;;;;;;;;;;;8.50;73.60;;;;;;5008737;28;19928;-68
2021/03/13 08:44:31;;;;;;;;;;;8.60;72.10;;;;;;5029060;28;20028;-67
2021/03/13 08:47:03;;;;;;;;;;;8.60;71.70;;;;;;5036981;28;19913;-68
2021/03/13 08:49:29;;;;;;;;;;;8.90;72.10;;;;;;5028538;28;19916;-68
2021/03/13 08:52:06;;;;;;;;;;;8.90;71.10;;;;;;5028804;28;19917;-69
2021/03/13 08:54:44;;;;;;;;;;;8.90;70.90;;;;;;5029471;28;20217;-71
2021/03/13 08:57:13;;;;;;;;;;;9.20;71.00;;;;;;5025581;28;20028;-68
2021/03/13 08:59:44;;;;;;;;;;;9.00;69.70;;;;;;5013692;28;20373;-68
2021/03/13 09:02:11;;;;;;;;;;;8.60;71.00;;;;;;5015048;28;21488;-68
2021/03/13 09:04:37;;;;;;;;;;;8.70;71.00;;;;;;5025745;28;19936;-69
2021/03/13 09:07:03;;;;;;;;;;;8.80;70.80;;;;;;5016590;28;19921;-68
2021/03/13 09:09:30;;;;;;;;;;;9.10;70.60;;;;;;5019105;28;19917;-68
2021/03/13 09:12:00;;;;;;;;;;;9.20;69.90;;;;;;5028799;28;19964;-68
2021/03/13 09:14:26;;;;;;;;;;;9.40;69.80;;;;;;5020443;28;19920;-68
2021/03/13 09:16:52;;;;;;;;;;;9.50;69.20;;;;;;5028855;28;19951;-67
2021/03/13 09:19:17;;;;;;;;;;;9.30;69.60;;;;;;5022772;28;19920;-69
2021/03/13 09:21:46;;;;;;;;;;;9.20;69.70;;;;;;5028177;28;19940;-69
2021/03/13 09:24:13;;;;;;;;;;;9.20;69.50;;;;;;5030128;28;20000;-69
2021/03/13 09:26:39;;;;;;;;;;;9.20;69.90;;;;;;5021457;28;19913;-69
2021/03/13 09:29:05;;;;;;;;;;;9.10;70.20;;;;;;5026173;28;20253;-68
2021/03/13 09:31:31;;;;;;;;;;;9.20;70.00;;;;;;5031249;28;20299;-68
2021/03/13 09:34:12;;;;;;;;;;;9.20;70.30;;;;;;5024071;28;19967;-69
2021/03/13 09:36:38;;;;;;;;;;;9.20;70.50;;;;;;5035210;28;19921;-66
2021/03/13 09:39:03;;;;;;;;;;;9.30;70.40;;;;;;5036100;28;20310;-68
2021/03/13 09:41:29;;;;;;;;;;;9.40;70.20;;;;;;5039232;28;20385;-68
2021/03/13 09:43:54;;;;;;;;;;;9.30;70.50;;;;;;5054392;28;20206;-68
2021/03/13 09:46:20;;;;;;;;;;;9.30;70.90;;;;;;5050300;28;19912;-68
2021/03/13 09:48:46;;;;;;;;;;;9.30;70.90;;;;;;5047512;28;19921;-69
2021/03/13 09:51:11;;;;;;;;;;;9.20;71.80;;;;;;5034621;28;19921;-69
2021/03/13 09:53:38;;;;;;;;;;;9.00;72.10;;;;;;5033390;28;19970;-69
2021/03/13 09:56:05;;;;;;;;;;;9.20;72.00;;;;;;5053318;28;19978;-68
2021/03/13 09:58:30;;;;;;;;;;;9.30;71.50;;;;;;5046794;28;19913;-69
2021/03/13 10:00:56;;;;;;;;;;;9.20;71.40;;;;;;5039947;28;19959;-68
2021/03/13 10:03:22;;;;;;;;;;;9.10;72.20;;;;;;5056016;28;19951;-69
2021/03/13 10:05:55;;;;;;;;;;;9.20;72.10;;;;;;5044087;28;20252;-68
2021/03/13 10:08:21;;;;;;;;;;;9.20;71.70;;;;;;5052778;28;19917;-69
2021/03/13 10:10:53;;;;;;;;;;;9.40;71.90;;;;;;5038004;28;19936;-68
2021/03/13 10:13:18;;;;;;;;;;;9.50;72.00;;;;;;5050285;28;19917;-67
2021/03/13 10:15:44;;;;;;;;;;;9.80;71.30;;;;;;5045936;28;20289;-68
2021/03/13 10:18:13;;;;;;;;;;;9.70;70.90;;;;;;5039507;28;19944;-68
2021/03/13 10:20:39;;;;;;;;;;;9.70;71.80;;;;;;5036615;28;20191;-69
2021/03/13 10:23:06;;;;;;;;;;;9.80;71.10;;;;;;5037595;28;19919;-69
2021/03/13 10:25:32;;;;;;;;;;;9.70;71.40;;;;;;5049199;28;20256;-69
2021/03/13 10:28:14;;;;;;;;;;;9.80;70.70;;;;;;5055196;28;19913;-69
2021/03/13 10:30:40;;;;;;;;;;;9.70;71.40;;;;;;5052150;28;19913;-67
2021/03/13 10:33:06;;;;;;;;;;;9.70;71.20;;;;;;5047065;28;20217;-67
2021/03/13 10:35:33;;;;;;;;;;;10.00;70.50;;;;;;5048446;28;19913;-67
2021/03/13 10:38:00;;;;;;;;;;;10.10;70.40;;;;;;5035584;28;19924;-67
2021/03/13 10:40:28;;;;;;;;;;;10.10;69.70;;;;;;5046199;28;19973;-68
2021/03/13 10:43:12;;;;;;;;;;;10.20;70.00;;;;;;5043486;28;19923;-67
2021/03/13 10:45:38;;;;;;;;;;;10.10;69.90;;;;;;5041201;28;19916;-69
2021/03/13 10:48:08;;;;;;;;;;;9.90;70.10;;;;;;5053061;28;19962;-69
2021/03/13 10:50:37;;;;;;;;;;;10.00;69.70;;;;;;5035847;28;20560;-69
2021/03/13 10:53:22;;;;;;;;;;;10.00;70.60;;;;;;5048111;28;20495;-69
2021/03/13 10:55:51;;;;;;;;;;;9.90;70.30;;;;;;5048420;28;19952;-69
2021/03/13 10:58:21;;;;;;;;;;;9.80;70.60;;;;;;5051087;28;19935;-68
2021/03/13 11:00:46;;;;;;;;;;;9.60;70.80;;;;;;5053531;28;19970;-69
2021/03/13 11:03:12;;;;;;;;;;;9.50;70.60;;;;;;5050382;28;19992;-70
2021/03/13 11:05:37;;;;;;;;;;;9.50;70.60;;;;;;5041608;28;19920;-69
2021/03/13 11:08:03;;;;;;;;;;;9.50;70.90;;;;;;5042502;28;19943;-69
2021/03/13 11:10:28;;;;;;;;;;;9.50;70.60;;;;;;5037603;28;19912;-69
2021/03/13 11:12:54;;;;;;;;;;;9.60;70.60;;;;;;5056472;28;19916;-70
2021/03/13 11:15:19;;;;;;;;;;;9.70;69.90;;;;;;5049171;28;19913;-69
2021/03/13 11:17:46;;;;;;;;;;;9.60;70.10;;;;;;5045465;28;19917;-69
2021/03/13 11:20:12;;;;;;;;;;;9.60;70.70;;;;;;5048807;28;20269;-68
2021/03/13 11:22:37;;;;;;;;;;;9.60;69.70;;;;;;5057196;28;19960;-67
2021/03/13 11:25:03;;;;;;;;;;;9.60;70.60;;;;;;5058011;28;20300;-68
2021/03/13 11:27:29;;;;;;;;;;;9.80;69.70;;;;;;5048815;28;20005;-68
2021/03/13 11:29:55;;;;;;;;;;;9.80;69.50;;;;;;5034150;28;19920;-69
2021/03/13 11:32:24;;;;;;;;;;;9.80;69.30;;;;;;5036836;28;19917;-68
2021/03/13 11:34:52;;;;;;;;;;;9.80;69.00;;;;;;5055739;28;19921;-69
2021/03/13 11:37:18;;;;;;;;;;;9.70;69.80;;;;;;5057466;28;19909;-68
2021/03/13 11:39:43;;;;;;;;;;;9.70;69.60;;;;;;5046082;28;20000;-68
2021/03/13 11:42:09;;;;;;;;;;;9.70;69.20;;;;;;5062914;28;20596;-68
2021/03/13 11:44:34;;;;;;;;;;;9.80;69.10;;;;;;5047257;28;20333;-68
2021/03/13 11:47:00;;;;;;;;;;;9.90;69.20;;;;;;5050638;28;19917;-67
2021/03/13 11:49:26;;;;;;;;;;;10.00;68.90;;;;;;5041546;28;20293;-68
2021/03/13 11:51:51;;;;;;;;;;;10.00;68.60;;;;;;5044429;28;19921;-68
2021/03/13 11:54:19;;;;;;;;;;;9.90;68.80;;;;;;5047251;28;19913;-69
2021/03/13 11:56:44;;;;;;;;;;;9.90;68.50;;;;;;5041118;28;19913;-68
2021/03/13 11:59:10;;;;;;;;;;;9.90;68.50;;;;;;5040443;28;19948;-69
2021/03/13 12:01:35;;;;;;;;;;;9.90;69.00;;;;;;5042109;28;19913;-71
2021/03/13 12:04:01;;;;;;;;;;;9.90;68.90;;;;;;5056618;28;19917;-68
2021/03/13 12:06:26;;;;;;;;;;;9.80;68.40;;;;;;5047177;28;20302;-68
2021/03/13 12:08:54;;;;;;;;;;;9.60;69.00;;;;;;5051679;28;19912;-68
2021/03/13 12:11:20;;;;;;;;;;;9.60;69.40;;;;;;5050331;28;19939;-69
2021/03/13 12:13:46;;;;;;;;;;;9.50;69.90;;;;;;5041920;28;19921;-68
2021/03/13 12:16:11;;;;;;;;;;;9.30;71.30;;;;;;5039972;28;19920;-67
2021/03/13 12:18:39;;;;;;;;;;;9.30;71.70;;;;;;5035381;28;19913;-66
2021/03/13 12:21:05;;;;;;;;;;;9.30;71.20;;;;;;5032043;28;19913;-66
2021/03/13 12:23:30;;;;;;;;;;;9.40;70.80;;;;;;5036732;28;19920;-68
2021/03/13 12:25:56;;;;;;;;;;;9.50;71.00;;;;;;5037063;28;20012;-68
2021/03/13 12:28:21;;;;;;;;;;;9.50;71.00;;;;;;5036337;28;19913;-67
2021/03/13 12:30:47;;;;;;;;;;;9.50;71.40;;;;;;5034886;28;20290;-68
2021/03/13 12:33:12;;;;;;;;;;;9.40;71.90;;;;;;5032230;28;20310;-68
2021/03/13 12:35:38;;;;;;;;;;;9.30;72.10;;;;;;5035792;28;19920;-68
2021/03/13 12:38:04;;;;;;;;;;;9.30;73.00;;;;;;5035706;28;19913;-68
2021/03/13 12:40:29;;;;;;;;;;;9.00;75.10;;;;;;5037246;28;19921;-67
2021/03/13 12:42:55;;;;;;;;;;;8.90;75.50;;;;;;5035964;28;19955;-66
2021/03/13 12:45:20;;;;;;;;;;;9.00;76.00;;;;;;5035791;28;20004;-66
2021/03/13 12:47:48;;;;;;;;;;;8.90;77.10;;;;;;5036148;28;20012;-68
2021/03/13 12:50:14;;;;;;;;;;;8.90;77.40;;;;;;5034705;28;19924;-67
2021/03/13 12:52:39;;;;;;;;;;;8.90;77.90;;;;;;5036540;28;19917;-68
2021/03/13 12:55:05;;;;;;;;;;;8.70;78.50;;;;;;5036090;28;20318;-68
2021/03/13 12:57:31;;;;;;;;;;;8.50;79.70;;;;;;5032510;28;20019;-68
2021/03/13 12:59:56;;;;;;;;;;;8.30;81.30;;;;;;5034245;28;19917;-68
2021/03/13 13:02:22;;;;;;;;;;;8.10;82.30;;;;;;5036105;28;19913;-67
2021/03/13 13:04:47;;;;;;;;;;;8.00;84.40;;;;;;5035809;28;19920;-67
2021/03/13 13:07:13;;;;;;;;;;;7.80;86.00;;;;;;5035761;28;19928;-67
2021/03/13 13:09:38;;;;;;;;;;;7.70;87.00;;;;;;5036031;28;19967;-67
2021/03/13 13:12:04;;;;;;;;;;;7.60;88.50;;;;;;5035363;28;20012;-67
2021/03/13 13:14:30;;;;;;;;;;;7.30;89.20;;;;;;5034099;28;19917;-67
2021/03/13 13:16:56;;;;;;;;;;;7.10;91.00;;;;;;5035056;28;19913;-68
2021/03/13 13:19:21;;;;;;;;;;;7.00;92.00;;;;;;5033947;28;20322;-67
2021/03/13 13:21:47;;;;;;;;;;;6.90;92.30;;;;;;5036433;28;19913;-68
2021/03/13 13:24:15;;;;;;;;;;;6.80;92.50;;;;;;5033441;28;19914;-68
2021/03/13 13:26:42;;;;;;;;;;;6.80;93.10;;;;;;5035449;28;20473;-68
2021/03/13 13:29:08;;;;;;;;;;;6.90;91.70;;;;;;5034585;28;19917;-66
2021/03/13 13:31:34;;;;;;;;;;;6.90;91.80;;;;;;5032434;28;19921;-66
2021/03/13 13:33:59;;;;;;;;;;;7.10;91.10;;;;;;5029388;28;19917;-66
2021/03/13 13:36:25;;;;;;;;;;;7.30;90.50;;;;;;5034579;28;20007;-66
2021/03/13 13:38:50;;;;;;;;;;;7.40;89.30;;;;;;5035310;28;19917;-68
2021/03/13 13:41:16;;;;;;;;;;;7.50;88.80;;;;;;5035897;28;19924;-69
2021/03/13 13:43:42;;;;;;;;;;;7.60;88.00;;;;;;5032338;28;19917;-67
2021/03/13 13:46:07;;;;;;;;;;;7.50;88.90;;;;;;5035763;28;19913;-68
2021/03/13 13:48:33;;;;;;;;;;;7.40;89.50;;;;;;5030813;28;20543;-68
2021/03/13 13:50:58;;;;;;;;;;;7.30;90.00;;;;;;5026294;28;19913;-68
2021/03/13 13:53:24;;;;;;;;;;;7.10;90.60;;;;;;5035321;28;20015;-69
2021/03/13 13:55:49;;;;;;;;;;;6.80;92.60;;;;;;5033723;28;20018;-70
2021/03/13 13:58:15;;;;;;;;;;;6.50;94.60;;;;;;5036323;28;20356;-69
2021/03/13 14:00:40;;;;;;;;;;;6.10;95.40;;;;;;5020574;28;20383;-69
2021/03/13 14:03:06;;;;;;;;;;;5.90;95.90;;;;;;5016864;28;19928;-69
2021/03/13 14:05:31;;;;;;;;;;;5.40;97.70;;;;;;5035056;28;19913;-69
2021/03/13 14:07:57;;;;;;;;;;;4.20;96.50;;;;;;5034804;28;20007;-70
2021/03/13 14:10:23;;;;;;;;;;;3.50;96.20;;;;;;5034441;28;19921;-69
2021/03/13 14:12:48;;;;;;;;;;;3.40;97.00;;;;;;5033692;28;20313;-69
2021/03/13 14:15:14;;;;;;;;;;;3.50;97.20;;;;;;5015622;28;20218;-70
2021/03/13 14:17:39;;;;;;;;;;;3.50;97.30;;;;;;5033991;28;20268;-70
2021/03/13 14:20:06;;;;;;;;;;;3.50;97.30;;;;;;5030422;28;20363;-70
2021/03/13 14:22:31;;;;;;;;;;;3.60;97.70;;;;;;5037464;28;19913;-70
2021/03/13 14:24:57;;;;;;;;;;;3.60;97.50;;;;;;5033873;28;20314;-70
2021/03/13 14:27:22;;;;;;;;;;;3.70;97.50;;;;;;5035967;28;20010;-69
2021/03/13 14:29:48;;;;;;;;;;;3.80;97.50;;;;;;5034820;28;19917;-70
2021/03/13 14:32:14;;;;;;;;;;;3.80;97.50;;;;;;5034066;28;19916;-69